createdAt,value
2018-08-16T00:00:15.408Z,18.2
2018-08-16T00:01:16.605Z,18.3
2018-08-16T00:02:22.557Z,18.2
2018-08-16T00:03:23.777Z,18.3
2018-08-16T00:04:24.957Z,18.2
2018-08-16T00:05:28.563Z,18.3
2018-08-16T00:06:32.187Z,18.3
2018-08-16T00:07:33.426Z,18.3
2018-08-16T00:08:40.615Z,18.3
2018-08-16T00:09:41.799Z,18.2
2018-08-16T00:10:43.024Z,18.2
2018-08-16T00:11:44.213Z,18.2
2018-08-16T00:12:45.420Z,18.3
2018-08-16T00:13:52.456Z,18.2
2018-08-16T00:14:53.651Z,18.2
2018-08-16T00:15:54.903Z,18.2
2018-08-16T00:16:58.536Z,18.2
2018-08-16T00:17:59.772Z,18.2
2018-08-16T00:19:00.995Z,18.1
2018-08-16T00:20:02.224Z,18.1
2018-08-16T00:21:03.760Z,18.1
2018-08-16T00:22:04.985Z,18.1
2018-08-16T00:23:06.183Z,18.1
2018-08-16T00:24:07.390Z,18.1
2018-08-16T00:25:08.716Z,18
2018-08-16T00:26:10.184Z,18
2018-08-16T00:27:11.384Z,18
2018-08-16T00:28:12.584Z,18
2018-08-16T00:29:13.775Z,18
2018-08-16T00:30:14.963Z,18
2018-08-16T00:31:16.548Z,17.9
2018-08-16T00:32:18.754Z,17.9
2018-08-16T00:33:19.942Z,17.9
2018-08-16T00:34:21.147Z,17.9
2018-08-16T00:35:23.057Z,17.9
2018-08-16T00:36:24.295Z,17.9
2018-08-16T00:37:25.610Z,17.8
2018-08-16T00:38:26.791Z,17.9
2018-08-16T00:39:27.985Z,17.8
2018-08-16T00:40:29.236Z,17.8
2018-08-16T00:41:30.686Z,17.7
2018-08-16T00:42:31.867Z,17.8
2018-08-16T00:43:33.094Z,17.8
2018-08-16T00:44:34.297Z,17.7
2018-08-16T00:45:35.492Z,17.7
2018-08-16T00:46:36.811Z,17.8
2018-08-16T00:47:38.013Z,17.8
2018-08-16T00:48:39.282Z,17.8
2018-08-16T00:49:43.679Z,17.7
2018-08-16T00:50:44.851Z,17.6
2018-08-16T00:51:46.111Z,17.7
2018-08-16T00:52:47.374Z,17.7
2018-08-16T00:53:51.301Z,17.7
2018-08-16T00:54:52.494Z,17.7
2018-08-16T00:55:53.668Z,17.7
2018-08-16T00:56:54.914Z,17.7
2018-08-16T00:57:56.083Z,17.6
2018-08-16T00:58:57.283Z,17.7
2018-08-16T00:59:58.454Z,17.6
2018-08-16T01:01:02.072Z,17.7
2018-08-16T01:02:03.545Z,17.6
2018-08-16T01:03:04.730Z,17.6
2018-08-16T01:04:05.924Z,17.6
2018-08-16T01:05:07.127Z,17.6
2018-08-16T01:06:11.296Z,17.5
2018-08-16T01:07:12.539Z,17.6
2018-08-16T01:08:16.188Z,17.5
2018-08-16T01:09:17.404Z,17.5
2018-08-16T01:10:18.602Z,17.5
2018-08-16T01:11:19.797Z,17.5
2018-08-16T01:12:21.225Z,17.5
2018-08-16T01:13:22.470Z,17.5
2018-08-16T01:14:25.820Z,17.4
2018-08-16T01:15:27.005Z,17.4
2018-08-16T01:16:28.188Z,17.5
2018-08-16T01:17:29.973Z,17.5
2018-08-16T01:18:31.642Z,17.5
2018-08-16T01:19:32.877Z,17.5
2018-08-16T01:20:34.078Z,17.4
2018-08-16T01:21:35.287Z,17.4
2018-08-16T01:22:36.519Z,17.4
2018-08-16T01:23:38.000Z,17.4
2018-08-16T01:24:41.456Z,17.3
2018-08-16T01:25:42.648Z,17.3
2018-08-16T01:26:43.836Z,17.3
2018-08-16T01:27:45.087Z,17.3
2018-08-16T01:28:46.292Z,17.3
2018-08-16T01:29:47.487Z,17.3
2018-08-16T01:30:48.764Z,17.2
2018-08-16T01:31:49.990Z,17.3
2018-08-16T01:32:51.220Z,17.3
2018-08-16T01:33:52.399Z,17.2
2018-08-16T01:34:53.981Z,17.2
2018-08-16T01:35:55.158Z,17.2
2018-08-16T01:36:56.363Z,17.2
2018-08-16T01:37:57.596Z,17.2
2018-08-16T01:38:58.800Z,17.2
2018-08-16T01:40:00.044Z,17.2
2018-08-16T01:41:01.259Z,17.2
2018-08-16T01:42:02.461Z,17.1
2018-08-16T01:43:03.727Z,17.2
2018-08-16T01:44:04.932Z,17.1
2018-08-16T01:45:06.165Z,17.1
2018-08-16T01:46:07.358Z,17.1
2018-08-16T01:47:08.581Z,17
2018-08-16T01:48:09.894Z,17.1
2018-08-16T01:49:11.090Z,17
2018-08-16T01:50:12.286Z,17.1
2018-08-16T01:51:13.503Z,17
2018-08-16T01:52:15.051Z,17
2018-08-16T01:53:16.691Z,17.1
2018-08-16T01:54:18.905Z,17.1
2018-08-16T01:55:20.135Z,17.1
2018-08-16T01:56:21.311Z,17
2018-08-16T01:57:25.299Z,17
2018-08-16T01:58:26.759Z,17
2018-08-16T01:59:28.017Z,17
2018-08-16T02:00:29.260Z,17
2018-08-16T02:01:31.672Z,17
2018-08-16T02:02:33.955Z,17
2018-08-16T02:03:35.174Z,16.9
2018-08-16T02:04:36.408Z,16.9
2018-08-16T02:05:37.630Z,16.8
2018-08-16T02:06:41.834Z,16.8
2018-08-16T02:07:43.287Z,16.8
2018-08-16T02:08:44.524Z,16.8
2018-08-16T02:09:45.728Z,16.8
2018-08-16T02:10:47.596Z,16.8
2018-08-16T02:11:48.836Z,16.8
2018-08-16T02:12:50.084Z,16.8
2018-08-16T02:13:51.479Z,16.8
2018-08-16T02:14:52.824Z,16.8
2018-08-16T02:15:56.748Z,16.7
2018-08-16T02:16:58.184Z,16.8
2018-08-16T02:17:59.397Z,16.8
2018-08-16T02:19:00.632Z,16.7
2018-08-16T02:20:01.869Z,16.7
2018-08-16T02:21:03.076Z,16.6
2018-08-16T02:22:04.578Z,16.5
2018-08-16T02:23:06.143Z,16.5
2018-08-16T02:24:07.389Z,16.7
2018-08-16T02:25:08.632Z,16.7
2018-08-16T02:26:09.878Z,16.7
2018-08-16T02:27:11.372Z,16.7
2018-08-16T02:28:12.771Z,16.6
2018-08-16T02:29:14.261Z,16.6
2018-08-16T02:30:15.478Z,16.6
2018-08-16T02:31:16.703Z,16.6
2018-08-16T02:32:18.942Z,16.6
2018-08-16T02:33:20.369Z,16.5
2018-08-16T02:34:21.664Z,16.6
2018-08-16T02:35:22.856Z,16.6
2018-08-16T02:36:24.116Z,16.6
2018-08-16T02:37:25.377Z,16.5
2018-08-16T02:38:26.584Z,16.5
2018-08-16T02:39:27.835Z,16.6
2018-08-16T02:40:29.008Z,16.6
2018-08-16T02:41:30.208Z,16.5
2018-08-16T02:42:31.407Z,16.5
2018-08-16T02:43:34.771Z,16.5
2018-08-16T02:44:36.303Z,16.3
2018-08-16T02:45:39.534Z,16.5
2018-08-16T02:46:40.718Z,16.5
2018-08-16T02:47:46.022Z,16.4
2018-08-16T02:48:47.668Z,16.4
2018-08-16T02:49:48.887Z,16.5
2018-08-16T02:50:50.143Z,16.4
2018-08-16T02:51:51.336Z,16.4
2018-08-16T02:52:55.535Z,16.4
2018-08-16T02:53:56.758Z,16.4
2018-08-16T02:54:57.992Z,16.4
2018-08-16T02:55:59.196Z,16.5
2018-08-16T02:57:00.456Z,16.5
2018-08-16T02:58:01.694Z,16.5
2018-08-16T02:59:02.890Z,16.4
2018-08-16T03:00:04.098Z,16.4
2018-08-16T03:01:05.402Z,16.4
2018-08-16T03:02:06.649Z,16.4
2018-08-16T03:03:07.894Z,16.3
2018-08-16T03:04:09.101Z,16.4
2018-08-16T03:05:10.312Z,16.4
2018-08-16T03:06:11.660Z,16.3
2018-08-16T03:07:12.751Z,16.3
2018-08-16T03:08:13.940Z,16.3
2018-08-16T03:09:15.123Z,16.3
2018-08-16T03:10:16.381Z,16.3
2018-08-16T03:11:17.601Z,16.3
2018-08-16T03:12:18.821Z,16.3
2018-08-16T03:13:20.068Z,16.3
2018-08-16T03:14:21.296Z,16.3
2018-08-16T03:15:22.848Z,16.3
2018-08-16T03:16:24.037Z,16.3
2018-08-16T03:17:25.235Z,16.2
2018-08-16T03:18:26.434Z,16.2
2018-08-16T03:19:27.669Z,16.2
2018-08-16T03:20:28.913Z,16.1
2018-08-16T03:21:30.144Z,16.2
2018-08-16T03:22:31.321Z,16.2
2018-08-16T03:23:32.534Z,16.2
2018-08-16T03:24:33.761Z,16
2018-08-16T03:25:34.999Z,16.1
2018-08-16T03:26:36.220Z,16.2
2018-08-16T03:27:37.414Z,16.2
2018-08-16T03:28:38.673Z,16.2
2018-08-16T03:29:41.472Z,16.2
2018-08-16T03:30:42.865Z,16.1
2018-08-16T03:31:44.145Z,16.1
2018-08-16T03:32:45.333Z,16
2018-08-16T03:33:46.580Z,16
2018-08-16T03:34:47.756Z,16
2018-08-16T03:35:49.518Z,16.1
2018-08-16T03:36:50.876Z,16
2018-08-16T03:37:52.061Z,16
2018-08-16T03:38:53.268Z,16
2018-08-16T03:39:54.473Z,16.1
2018-08-16T03:41:06.428Z,16
2018-08-16T03:42:26.364Z,16.1
2018-08-16T03:43:36.948Z,16
2018-08-16T03:44:38.614Z,16
2018-08-16T03:45:40.280Z,16
2018-08-16T03:46:41.532Z,16
2018-08-16T03:47:42.745Z,15.8
2018-08-16T03:48:43.937Z,15.9
2018-08-16T03:49:45.130Z,15.9
2018-08-16T03:50:46.335Z,15.9
2018-08-16T03:51:47.585Z,15.9
2018-08-16T03:52:48.768Z,15.9
2018-08-16T03:53:49.977Z,15.9
2018-08-16T03:54:51.193Z,15.8
2018-08-16T03:55:52.393Z,15.8
2018-08-16T03:56:53.612Z,15.9
2018-08-16T03:57:54.818Z,15.9
2018-08-16T03:58:56.007Z,15.9
2018-08-16T03:59:57.247Z,15.9
2018-08-16T04:00:58.454Z,15.8
2018-08-16T04:01:59.878Z,15.8
2018-08-16T04:03:01.111Z,15.8
2018-08-16T04:04:02.361Z,15.6
2018-08-16T04:05:03.593Z,15.8
2018-08-16T04:06:04.829Z,15.8
2018-08-16T04:07:06.107Z,15.8
2018-08-16T04:08:07.304Z,15.8
2018-08-16T04:09:08.512Z,15.8
2018-08-16T04:10:09.757Z,15.8
2018-08-16T04:11:11.037Z,15.8
2018-08-16T04:12:12.313Z,15.7
2018-08-16T04:13:13.567Z,15.8
2018-08-16T04:14:14.799Z,15.7
2018-08-16T04:15:16.017Z,15.8
2018-08-16T04:16:17.215Z,15.8
2018-08-16T04:17:21.208Z,15.8
2018-08-16T04:18:22.411Z,15.8
2018-08-16T04:19:23.592Z,15.8
2018-08-16T04:20:24.848Z,15.8
2018-08-16T04:21:26.057Z,15.8
2018-08-16T04:22:27.329Z,15.8
2018-08-16T04:23:28.542Z,15.9
2018-08-16T04:24:29.706Z,15.9
2018-08-16T04:25:30.967Z,15.9
2018-08-16T04:26:32.145Z,15.8
2018-08-16T04:27:33.375Z,15.9
2018-08-16T04:28:34.566Z,16
2018-08-16T04:29:37.945Z,15.9
2018-08-16T04:30:39.167Z,15.8
2018-08-16T04:31:40.513Z,16
2018-08-16T04:32:41.781Z,16
2018-08-16T04:33:45.165Z,16
2018-08-16T04:34:46.458Z,16.1
2018-08-16T04:35:47.700Z,16.1
2018-08-16T04:36:48.949Z,16.2
2018-08-16T04:37:50.172Z,16.3
2018-08-16T04:38:51.896Z,16.4
2018-08-16T04:39:53.140Z,16.4
2018-08-16T04:40:54.335Z,16.5
2018-08-16T04:41:55.555Z,16.5
2018-08-16T04:42:56.828Z,16.6
2018-08-16T04:43:58.048Z,16.6
2018-08-16T04:44:59.256Z,16.7
2018-08-16T04:46:00.563Z,16.8
2018-08-16T04:47:01.865Z,16.8
2018-08-16T04:48:03.537Z,16.9
2018-08-16T04:49:04.736Z,17
2018-08-16T04:50:05.947Z,17.1
2018-08-16T04:51:07.495Z,17.2
2018-08-16T04:52:09.286Z,17.3
2018-08-16T04:53:10.606Z,17.4
2018-08-16T04:54:11.854Z,17.5
2018-08-16T04:55:13.121Z,17.6
2018-08-16T04:56:15.133Z,17.7
2018-08-16T04:57:20.061Z,17.9
2018-08-16T04:58:21.329Z,17.9
2018-08-16T04:59:22.566Z,18.1
2018-08-16T05:00:23.769Z,18.2
2018-08-16T05:01:25.273Z,18.4
2018-08-16T05:02:28.450Z,18.6
2018-08-16T05:03:30.215Z,18.7
2018-08-16T05:04:31.892Z,18.8
2018-08-16T05:05:33.135Z,18.9
2018-08-16T05:06:34.341Z,18.9
2018-08-16T05:07:39.018Z,19.1
2018-08-16T05:08:40.284Z,19.2
2018-08-16T05:09:41.488Z,19.3
2018-08-16T05:10:42.759Z,19.4
2018-08-16T05:11:47.027Z,19.5
2018-08-16T05:12:48.279Z,19.6
2018-08-16T05:13:49.545Z,19.7
2018-08-16T05:14:50.895Z,19.8
2018-08-16T05:15:52.166Z,19.8
2018-08-16T05:16:53.394Z,20
2018-08-16T05:17:54.614Z,20.1
2018-08-16T05:18:56.246Z,20.3
2018-08-16T05:19:57.492Z,20.5
2018-08-16T05:20:58.964Z,20.5
2018-08-16T05:22:00.334Z,20.7
2018-08-16T05:23:03.144Z,20.8
2018-08-16T05:24:04.439Z,20.9
2018-08-16T05:25:05.790Z,21
2018-08-16T05:26:07.160Z,21.2
2018-08-16T05:27:08.476Z,21
2018-08-16T05:28:14.214Z,21.2
2018-08-16T05:29:18.204Z,21.6
2018-08-16T05:30:19.428Z,21.8
2018-08-16T05:31:20.732Z,22
2018-08-16T05:32:22.020Z,22.1
2018-08-16T05:33:23.216Z,22.2
2018-08-16T05:34:24.493Z,22.3
2018-08-16T05:35:25.724Z,22.5
2018-08-16T05:36:28.623Z,22.4
2018-08-16T05:37:32.416Z,22.7
2018-08-16T05:38:33.729Z,22.8
2018-08-16T05:39:35.305Z,23
2018-08-16T05:40:38.124Z,23.2
2018-08-16T05:41:39.384Z,23.1
2018-08-16T05:42:40.696Z,23.3
2018-08-16T05:43:41.991Z,23.5
2018-08-16T05:44:43.269Z,23.3
2018-08-16T05:45:44.535Z,23.5
2018-08-16T05:46:45.767Z,23.4
2018-08-16T05:49:03.493Z,23.3
2018-08-16T05:50:05.017Z,23.4
2018-08-16T05:51:06.269Z,24.1
2018-08-16T05:52:07.531Z,24
2018-08-16T05:53:08.893Z,24.1
2018-08-16T05:54:12.384Z,24.2
2018-08-16T05:55:13.729Z,23.8
2018-08-16T05:56:14.986Z,24.1
2018-08-16T05:57:16.659Z,24.4
2018-08-16T05:58:18.201Z,24.4
2018-08-16T05:59:21.383Z,24.5
2018-08-16T06:00:22.673Z,24.2
2018-08-16T06:01:24.208Z,24.6
2018-08-16T06:02:25.500Z,24.2
2018-08-16T06:03:29.269Z,24.3
2018-08-16T06:04:30.603Z,24.3
2018-08-16T06:05:33.254Z,24.1
2018-08-16T06:06:35.823Z,24
2018-08-16T06:07:37.251Z,23.6
2018-08-16T06:08:38.962Z,23.8
2018-08-16T06:09:40.204Z,23.8
2018-08-16T06:10:42.648Z,24
2018-08-16T06:11:43.864Z,23.9
2018-08-16T06:12:45.147Z,23.7
2018-08-16T06:13:46.347Z,23.8
2018-08-16T06:14:47.563Z,24.3
2018-08-16T06:15:48.901Z,24.4
2018-08-16T06:16:50.149Z,24.5
2018-08-16T06:17:51.694Z,24.5
2018-08-16T06:18:52.979Z,24.9
2018-08-16T06:19:54.225Z,24.7
2018-08-16T06:20:55.967Z,24.7
2018-08-16T06:22:00.171Z,25.4
2018-08-16T06:23:03.413Z,24.9
2018-08-16T06:24:04.646Z,25.2
2018-08-16T06:25:05.894Z,25.7
2018-08-16T06:26:07.177Z,28.1
2018-08-16T06:27:09.304Z,28.6
2018-08-16T06:28:11.106Z,28.7
2018-08-16T06:29:15.278Z,28.1
2018-08-16T06:30:16.545Z,29.1
2018-08-16T06:31:20.456Z,27.4
2018-08-16T06:32:21.916Z,27
2018-08-16T06:33:23.211Z,27.7
2018-08-16T06:34:24.437Z,28
2018-08-16T06:35:25.773Z,27.7
2018-08-16T06:36:27.020Z,29
2018-08-16T06:37:28.383Z,27.8
2018-08-16T06:38:29.652Z,27.2
2018-08-16T06:39:30.869Z,28.5
2018-08-16T06:40:32.306Z,30
2018-08-16T06:41:33.619Z,28.5
2018-08-16T06:42:34.912Z,30.2
2018-08-16T06:43:36.172Z,28.7
2018-08-16T06:44:37.421Z,30.8
2018-08-16T06:45:38.913Z,30.2
2018-08-16T06:46:40.249Z,28.8
2018-08-16T06:47:41.506Z,27.8
2018-08-16T06:48:42.725Z,28.6
2018-08-16T06:49:46.386Z,28.2
2018-08-16T06:50:47.840Z,27.5
2018-08-16T06:51:49.366Z,27.4
2018-08-16T06:52:50.676Z,28.7
2018-08-16T06:53:53.921Z,28.1
2018-08-16T06:54:55.415Z,27.6
2018-08-16T06:55:56.932Z,27.3
2018-08-16T06:56:58.512Z,27.3
2018-08-16T06:58:03.425Z,27.3
2018-08-16T06:59:05.729Z,27.6
2018-08-16T07:00:08.278Z,27.4
2018-08-16T07:01:09.831Z,27.6
2018-08-16T07:02:11.410Z,27.8
2018-08-16T07:03:12.670Z,27.8
2018-08-16T07:04:14.029Z,28.5
2018-08-16T07:05:18.564Z,27.9
2018-08-16T07:06:21.993Z,27.9
2018-08-16T07:07:28.509Z,27.8
2018-08-16T07:08:29.727Z,28
2018-08-16T07:09:33.472Z,28
2018-08-16T07:10:34.722Z,27.8
2018-08-16T07:11:35.964Z,27.9
2018-08-16T07:12:37.283Z,27.9
2018-08-16T07:13:40.414Z,27.9
2018-08-16T07:14:41.640Z,28.6
2018-08-16T07:15:42.990Z,28.9
2018-08-16T07:16:44.221Z,28.6
2018-08-16T07:17:45.687Z,29.1
2018-08-16T07:18:47.305Z,28.7
2018-08-16T07:19:48.545Z,28.5
2018-08-16T07:20:50.247Z,28.4
2018-08-16T07:21:51.641Z,28.4
2018-08-16T07:22:55.984Z,28.4
2018-08-16T07:23:57.270Z,29.2
2018-08-16T07:24:58.493Z,29.1
2018-08-16T07:26:00.050Z,29.3
2018-08-16T07:27:02.759Z,29.1
2018-08-16T07:28:04.233Z,28.6
2018-08-16T07:29:07.132Z,29.2
2018-08-16T07:30:08.753Z,30.8
2018-08-16T07:31:10.187Z,33.5
2018-08-16T07:32:14.231Z,33.9
2018-08-16T07:33:15.913Z,31.1
2018-08-16T07:34:17.146Z,29.8
2018-08-16T07:35:18.496Z,29.4
2018-08-16T07:36:19.986Z,29.2
2018-08-16T07:37:21.340Z,28.9
2018-08-16T07:38:22.689Z,28.7
2018-08-16T07:39:23.950Z,28.5
2018-08-16T07:40:27.468Z,28.4
2018-08-16T07:41:28.765Z,28.5
2018-08-16T07:42:32.902Z,29.5
2018-08-16T07:43:34.251Z,28.9
2018-08-16T07:44:35.458Z,28.7
2018-08-16T07:45:36.710Z,29.2
2018-08-16T07:46:37.942Z,28.8
2018-08-16T07:47:39.169Z,28.7
2018-08-16T07:48:40.658Z,28.7
2018-08-16T07:49:45.733Z,28.7
2018-08-16T07:50:46.939Z,28.5
2018-08-16T07:51:48.272Z,28.8
2018-08-16T07:52:49.449Z,28.9
2018-08-16T07:53:50.778Z,28.8
2018-08-16T07:54:54.580Z,28.7
2018-08-16T07:55:55.767Z,28.7
2018-08-16T07:56:56.999Z,28.6
2018-08-16T07:57:58.245Z,28.8
2018-08-16T07:59:02.294Z,28.8
2018-08-16T08:00:03.881Z,28.4
2018-08-16T08:01:05.163Z,28.1
2018-08-16T08:02:06.742Z,28.3
2018-08-16T08:03:08.156Z,28.5
2018-08-16T08:04:09.628Z,28.6
2018-08-16T08:05:11.974Z,28.7
2018-08-16T08:06:13.524Z,28.7
2018-08-16T08:07:15.135Z,29.1
2018-08-16T08:08:16.430Z,28.6
2018-08-16T08:09:17.864Z,28.4
2018-08-16T08:10:21.269Z,28.1
2018-08-16T08:11:22.830Z,28.5
2018-08-16T08:12:26.669Z,28.1
2018-08-16T08:13:28.015Z,28
2018-08-16T08:14:29.304Z,28.5
2018-08-16T08:15:30.604Z,28.8
2018-08-16T08:16:33.125Z,28.7
2018-08-16T08:17:34.792Z,28.7
2018-08-16T08:18:36.019Z,28.8
2018-08-16T08:19:42.486Z,29.1
2018-08-16T08:20:46.270Z,28.7
2018-08-16T08:21:47.641Z,28.5
2018-08-16T08:22:49.252Z,28.4
2018-08-16T08:23:52.106Z,28
2018-08-16T08:24:53.431Z,28
2018-08-16T08:25:54.803Z,28.2
2018-08-16T08:27:10.940Z,28.2
2018-08-16T08:28:12.313Z,28.7
2018-08-16T08:29:18.460Z,28.5
2018-08-16T08:30:19.827Z,28.5
2018-08-16T08:31:23.769Z,28.5
2018-08-16T08:32:25.232Z,28.3
2018-08-16T08:33:26.498Z,28.6
2018-08-16T08:34:27.747Z,28.6
2018-08-16T08:35:36.387Z,28.6
2018-08-16T08:36:37.606Z,28.6
2018-08-16T08:37:41.994Z,28.7
2018-08-16T08:38:43.355Z,28.5
2018-08-16T08:39:44.535Z,28.6
2018-08-16T08:40:46.686Z,28.5
2018-08-16T08:41:49.107Z,28.7
2018-08-16T08:42:56.919Z,28.9
2018-08-16T08:44:08.816Z,28.5
2018-08-16T08:45:12.422Z,28.4
2018-08-16T08:46:16.271Z,28.8
2018-08-16T08:47:19.438Z,29
2018-08-16T08:48:23.710Z,29.1
2018-08-16T08:49:24.972Z,29.3
2018-08-16T08:50:26.342Z,29.2
2018-08-16T08:51:27.693Z,29.4
2018-08-16T08:52:28.933Z,29.5
2018-08-16T08:53:30.207Z,29.5
2018-08-16T08:54:31.506Z,29.2
2018-08-16T08:55:32.771Z,29.2
2018-08-16T08:56:34.485Z,29.1
2018-08-16T08:57:35.703Z,28.9
2018-08-16T08:58:38.884Z,29.1
2018-08-16T08:59:42.591Z,29.4
2018-08-16T09:00:49.422Z,29.2
2018-08-16T09:01:50.757Z,29.5
2018-08-16T09:02:57.458Z,29.5
2018-08-16T09:04:02.212Z,29.6
2018-08-16T09:05:03.745Z,29.3
2018-08-16T09:06:05.011Z,29.4
2018-08-16T09:07:06.377Z,29.4
2018-08-16T09:08:07.667Z,29.4
2018-08-16T09:09:16.271Z,29.4
2018-08-16T09:10:19.095Z,29.4
2018-08-16T09:11:24.780Z,29.6
2018-08-16T09:12:26.077Z,29.6
2018-08-16T09:13:28.732Z,29.4
2018-08-16T09:14:33.737Z,29.4
2018-08-16T09:15:36.821Z,29
2018-08-16T09:16:38.132Z,28.6
2018-08-16T09:17:39.613Z,28.6
2018-08-16T09:18:40.876Z,28.8
2018-08-16T09:19:42.210Z,28.7
2018-08-16T09:20:46.352Z,29
2018-08-16T09:21:47.639Z,28.9
2018-08-16T09:22:52.180Z,28.8
2018-08-16T09:23:57.687Z,29.1
2018-08-16T09:24:59.128Z,28.9
2018-08-16T09:26:00.368Z,28.6
2018-08-16T09:27:01.754Z,29.2
2018-08-16T09:28:03.141Z,29.3
2018-08-16T09:29:04.556Z,29.2
2018-08-16T09:30:05.849Z,29.2
2018-08-16T09:31:09.916Z,29.3
2018-08-16T09:32:11.218Z,29.6
2018-08-16T09:33:12.652Z,29.4
2018-08-16T09:34:14.972Z,28.9
2018-08-16T09:35:20.080Z,28.6
2018-08-16T09:36:27.740Z,28.9
2018-08-16T09:37:31.713Z,29.1
2018-08-16T09:38:33.270Z,29.1
2018-08-16T09:39:34.588Z,29.1
2018-08-16T09:40:35.809Z,29.2
2018-08-16T09:41:37.290Z,29.3
2018-08-16T09:42:38.656Z,29.5
2018-08-16T09:43:42.532Z,29.4
2018-08-16T09:44:45.493Z,29.4
2018-08-16T09:45:47.224Z,29.5
2018-08-16T09:46:48.547Z,29.1
2018-08-16T09:47:52.738Z,29
2018-08-16T09:48:54.009Z,28.8
2018-08-16T09:49:55.332Z,28.8
2018-08-16T09:50:56.848Z,28.9
2018-08-16T09:51:58.076Z,28.8
2018-08-16T09:52:59.443Z,29
2018-08-16T09:54:00.808Z,29
2018-08-16T09:55:02.426Z,28.9
2018-08-16T09:56:03.734Z,28.8
2018-08-16T09:57:04.991Z,29
2018-08-16T09:58:06.650Z,28.9
2018-08-16T09:59:10.657Z,29
2018-08-16T10:00:13.508Z,29
2018-08-16T10:01:24.306Z,28.9
2018-08-16T10:02:26.025Z,28.9
2018-08-16T10:03:30.483Z,29
2018-08-16T10:04:33.324Z,29
2018-08-16T10:05:36.734Z,29.2
2018-08-16T10:06:38.521Z,29.2
2018-08-16T10:07:42.584Z,29.1
2018-08-16T10:08:43.939Z,28.9
2018-08-16T10:09:45.315Z,28.9
2018-08-16T10:10:48.018Z,29
2018-08-16T10:11:49.400Z,28.9
2018-08-16T10:12:56.925Z,28.9
2018-08-16T10:14:01.510Z,29.1
2018-08-16T10:15:05.156Z,29.1
2018-08-16T10:16:09.751Z,29
2018-08-16T10:17:15.220Z,29
2018-08-16T10:18:18.241Z,29
2018-08-16T10:19:25.610Z,29.1
2018-08-16T10:20:27.370Z,29.3
2018-08-16T10:21:28.796Z,29.4
2018-08-16T10:22:32.836Z,29.2
2018-08-16T10:23:35.408Z,29.1
2018-08-16T10:24:36.892Z,29.1
2018-08-16T10:25:38.325Z,29.2
2018-08-16T10:26:41.809Z,29.2
2018-08-16T10:27:45.398Z,29.3
2018-08-16T10:28:46.958Z,29.3
2018-08-16T10:29:48.646Z,29.3
2018-08-16T10:30:58.648Z,29.3
2018-08-16T10:32:00.797Z,28.9
2018-08-16T10:33:05.511Z,28.7
2018-08-16T10:34:07.071Z,28.9
2018-08-16T10:35:08.611Z,28.9
2018-08-16T10:36:15.629Z,29
2018-08-16T10:37:17.517Z,29
2018-08-16T10:38:18.815Z,29
2018-08-16T10:39:20.684Z,28.9
2018-08-16T10:40:28.057Z,28.9
2018-08-16T10:41:32.252Z,28.9
2018-08-16T10:42:41.464Z,29
2018-08-16T10:43:48.938Z,28.9
2018-08-16T10:44:56.372Z,28.8
2018-08-16T10:45:58.390Z,28.8
2018-08-16T10:47:12.885Z,28.8
2018-08-16T10:48:16.094Z,28.9
2018-08-16T10:49:18.290Z,28.9
2018-08-16T10:50:19.817Z,28.9
2018-08-16T10:51:24.141Z,28.8
2018-08-16T10:52:28.204Z,29
2018-08-16T10:53:29.551Z,28.8
2018-08-16T10:54:30.886Z,28.8
2018-08-16T10:55:32.166Z,28.9
2018-08-16T10:56:33.404Z,28.8
2018-08-16T10:57:34.699Z,28.6
2018-08-16T10:58:38.120Z,28.6
2018-08-16T10:59:39.672Z,28.6
2018-08-16T11:00:41.155Z,28.5
2018-08-16T11:01:45.681Z,28.6
2018-08-16T11:02:47.060Z,28.6
2018-08-16T11:03:48.357Z,28.7
2018-08-16T11:04:51.199Z,28.7
2018-08-16T11:05:52.587Z,28.7
2018-08-16T11:06:57.485Z,28.7
2018-08-16T11:07:59.258Z,28.8
2018-08-16T11:09:02.248Z,28.6
2018-08-16T11:10:05.640Z,28.7
2018-08-16T11:11:06.958Z,28.6
2018-08-16T11:12:10.048Z,28.6
2018-08-16T11:13:14.038Z,28.6
2018-08-16T11:14:18.341Z,28.8
2018-08-16T11:15:19.802Z,28.9
2018-08-16T11:16:35.672Z,28.9
2018-08-16T11:17:36.972Z,28.9
2018-08-16T11:18:38.318Z,28.9
2018-08-16T11:19:39.891Z,28.9
2018-08-16T11:20:41.297Z,28.9
2018-08-16T11:21:57.242Z,28.8
2018-08-16T11:23:01.489Z,28.9
2018-08-16T11:24:05.401Z,28.9
2018-08-16T11:25:08.042Z,28.8
2018-08-16T11:26:15.401Z,28.8
2018-08-16T11:27:20.204Z,28.6
2018-08-16T11:28:24.324Z,28.7
2018-08-16T11:29:25.911Z,28.7
2018-08-16T11:30:49.070Z,28.9
2018-08-16T11:31:50.452Z,28.9
2018-08-16T11:32:54.249Z,28.8
2018-08-16T11:33:55.547Z,28.6
2018-08-16T11:35:00.792Z,28.7
2018-08-16T11:36:02.326Z,28.7
2018-08-16T11:37:06.298Z,28.8
2018-08-16T11:38:07.638Z,28.7
2018-08-16T11:39:08.905Z,28.6
2018-08-16T11:40:10.308Z,28.7
2018-08-16T11:41:11.671Z,28.7
2018-08-16T11:42:13.192Z,28.8
2018-08-16T11:43:14.992Z,28.9
2018-08-16T11:44:31.187Z,28.9
2018-08-16T11:45:39.930Z,28.8
2018-08-16T11:46:41.212Z,28.8
2018-08-16T11:47:45.488Z,28.7
2018-08-16T11:48:46.727Z,28.7
2018-08-16T11:49:49.303Z,28.7
2018-08-16T11:50:52.965Z,28.7
2018-08-16T11:51:59.726Z,28.7
2018-08-16T11:53:03.952Z,28.8
2018-08-16T11:54:07.639Z,28.7
2018-08-16T11:55:31.208Z,28.8
2018-08-16T11:56:32.760Z,28.9
2018-08-16T11:57:34.159Z,28.8
2018-08-16T11:58:35.393Z,28.8
2018-08-16T11:59:36.939Z,28.9
2018-08-16T12:00:38.240Z,28.8
2018-08-16T12:01:42.290Z,28.8
2018-08-16T12:02:48.233Z,28.8
2018-08-16T12:03:52.738Z,28.8
2018-08-16T12:04:58.153Z,28.9
2018-08-16T12:05:59.432Z,28.9
2018-08-16T12:07:00.860Z,28.9
2018-08-16T12:08:02.117Z,28.9
2018-08-16T12:09:03.371Z,28.9
2018-08-16T12:10:04.634Z,28.9
2018-08-16T12:11:06.725Z,28.9
2018-08-16T12:12:08.003Z,28.9
2018-08-16T12:13:09.255Z,28.8
2018-08-16T12:14:11.929Z,28.7
2018-08-16T12:15:13.393Z,28.6
2018-08-16T12:16:17.426Z,28.7
2018-08-16T12:17:22.284Z,28.7
2018-08-16T12:18:24.989Z,28.7
2018-08-16T12:19:28.691Z,28.6
2018-08-16T12:20:36.987Z,28.7
2018-08-16T12:21:44.284Z,28.8
2018-08-16T12:22:50.484Z,28.7
2018-08-16T12:23:51.885Z,28.8
2018-08-16T12:24:56.026Z,28.9
2018-08-16T12:25:57.289Z,28.8
2018-08-16T12:27:04.634Z,28.8
2018-08-16T12:28:14.201Z,28.8
2018-08-16T12:29:31.201Z,28.8
2018-08-16T12:30:35.206Z,28.8
2018-08-16T12:31:36.922Z,28.7
2018-08-16T12:34:03.727Z,28.8
2018-08-16T12:35:08.207Z,28.9
2018-08-16T12:36:11.137Z,28.8
2018-08-16T12:37:15.393Z,28.7
2018-08-16T12:38:19.144Z,28.9
2018-08-16T12:39:20.409Z,28.9
2018-08-16T12:40:21.907Z,28.9
2018-08-16T12:41:27.139Z,28.9
2018-08-16T12:42:31.706Z,28.9
2018-08-16T12:43:33.245Z,28.9
2018-08-16T12:44:38.370Z,28.8
2018-08-16T12:45:39.739Z,28.8
2018-08-16T12:46:44.459Z,28.8
2018-08-16T12:47:48.789Z,28.8
2018-08-16T12:48:51.230Z,28.8
2018-08-16T12:49:54.672Z,28.8
2018-08-16T12:51:01.862Z,28.8
2018-08-16T12:52:07.844Z,28.8
2018-08-16T12:53:11.943Z,28.7
2018-08-16T12:54:25.103Z,28.8
2018-08-16T12:55:29.920Z,28.9
2018-08-16T12:56:33.489Z,28.9
2018-08-16T12:57:34.797Z,28.8
2018-08-16T12:58:49.513Z,28.8
2018-08-16T12:59:55.624Z,28.7
2018-08-16T13:02:27.332Z,28.8
2018-08-16T13:03:31.755Z,28.7
2018-08-16T13:04:39.180Z,28.6
2018-08-16T13:05:41.791Z,28.7
2018-08-16T13:06:45.325Z,28.8
2018-08-16T13:07:51.954Z,28.8
2018-08-16T13:08:53.823Z,28.7
2018-08-16T13:09:57.798Z,28.7
2018-08-16T13:10:59.055Z,28.7
2018-08-16T13:12:12.273Z,28.8
2018-08-16T13:13:15.135Z,28.8
2018-08-16T13:15:39.200Z,28.8
2018-08-16T13:16:40.693Z,28.7
2018-08-16T13:17:48.183Z,28.8
2018-08-16T13:18:54.501Z,28.9
2018-08-16T13:19:55.791Z,28.7
2018-08-16T13:21:04.345Z,28.5
2018-08-16T13:22:08.125Z,28.7
2018-08-16T13:23:24.633Z,28.7
2018-08-16T13:24:31.475Z,28.8
2018-08-16T13:25:34.195Z,28.8
2018-08-16T13:26:38.372Z,28.9
2018-08-16T13:27:54.456Z,28.9
2018-08-16T13:28:58.097Z,28.9
2018-08-16T13:30:14.800Z,28.9
2018-08-16T13:31:18.970Z,28.9
2018-08-16T13:32:20.211Z,28.8
2018-08-16T13:33:24.601Z,28.8
2018-08-16T13:34:28.512Z,28.9
2018-08-16T13:35:32.156Z,28.9
2018-08-16T13:36:33.826Z,28.9
2018-08-16T13:37:41.434Z,28.9
2018-08-16T13:38:46.376Z,28.6
2018-08-16T13:40:04.584Z,28.7
2018-08-16T13:41:06.107Z,28.6
2018-08-16T13:42:07.458Z,28.8
2018-08-16T13:43:10.894Z,28.7
2018-08-16T13:44:12.323Z,28.8
2018-08-16T13:45:14.070Z,28.8
2018-08-16T13:46:20.311Z,28.9
2018-08-16T13:47:21.556Z,29
2018-08-16T13:48:25.662Z,29
2018-08-16T13:49:27.492Z,29
2018-08-16T13:50:33.336Z,29
2018-08-16T13:51:39.011Z,29
2018-08-16T13:52:43.728Z,29
2018-08-16T13:53:46.344Z,28.9
2018-08-16T13:54:47.729Z,28.9
2018-08-16T13:55:49.793Z,29
2018-08-16T13:56:53.858Z,29
2018-08-16T13:57:55.113Z,29
2018-08-16T13:58:56.649Z,29
2018-08-16T13:59:59.347Z,29
2018-08-16T14:01:00.882Z,28.9
2018-08-16T14:02:05.427Z,29
2018-08-16T14:03:06.723Z,29
2018-08-16T14:04:14.296Z,29.1